sensor_id;sensor_type;location;lat;lon;timestamp;pressure;altitude;pressure_sealevel;temperature;humidity
4836;BME280;66719;51.226;6.902;2023-02-23T00:01:57;100428.75;;;9.19;100.00
4836;BME280;66719;51.226;6.902;2023-02-23T00:04:32;100427.06;;;9.17;100.00
4836;BME280;66719;51.226;6.902;2023-02-23T00:06:59;100429.69;;;9.15;100.00
4836;BME280;66719;51.226;6.902;2023-02-23T00:09:26;100423.66;;;9.13;100.00
4836;BME280;66719;51.226;6.902;2023-02-23T00:12:01;100422.78;;;9.11;100.00
4836;BME280;66719;51.226;6.902;2023-02-23T00:14:35;100414.97;;;9.10;100.00
4836;BME280;66719;51.226;6.902;2023-02-23T00:17:03;100424.56;;;9.09;100.00
4836;BME280;66719;51.226;6.902;2023-02-23T00:19:30;100420.22;;;9.10;100.00
4836;BME280;66719;51.226;6.902;2023-02-23T00:21:58;100421.06;;;9.10;100.00
4836;BME280;66719;51.226;6.902;2023-02-23T00:24:26;100414.09;;;9.11;100.00
4836;BME280;66719;51.226;6.902;2023-02-23T00:26:52;100413.22;;;9.10;100.00
4836;BME280;66719;51.226;6.902;2023-02-23T00:29:21;100412.38;;;9.10;100.00
4836;BME280;66719;51.226;6.902;2023-02-23T00:31:49;100425.44;;;9.10;100.00
4836;BME280;66719;51.226;6.902;2023-02-23T00:34:18;100422.81;;;9.10;100.00
4836;BME280;66719;51.226;6.902;2023-02-23T00:36:49;100419.34;;;9.09;100.00
4836;BME280;66719;51.226;6.902;2023-02-23T00:39:16;100414.16;;;9.07;100.00
4836;BME280;66719;51.226;6.902;2023-02-23T00:41:52;100419.34;;;9.09;100.00
4836;BME280;66719;51.226;6.902;2023-02-23T00:44:19;100412.38;;;9.10;100.00
4836;BME280;66719;51.226;6.902;2023-02-23T00:46:47;100409.75;;;9.10;100.00
4836;BME280;66719;51.226;6.902;2023-02-23T00:49:19;100409.72;;;9.11;100.00
4836;BME280;66719;51.226;6.902;2023-02-23T00:51:46;100410.63;;;9.10;100.00
4836;BME280;66719;51.226;6.902;2023-02-23T00:54:14;100412.38;;;9.10;100.00
4836;BME280;66719;51.226;6.902;2023-02-23T00:56:41;100416.69;;;9.12;100.00
4836;BME280;66719;51.226;6.902;2023-02-23T00:59:07;100415.84;;;9.10;100.00
4836;BME280;66719;51.226;6.902;2023-02-23T01:01:34;100415.84;;;9.10;100.00
4836;BME280;66719;51.226;6.902;2023-02-23T01:04:03;100414.94;;;9.11;100.00
4836;BME280;66719;51.226;6.902;2023-02-23T01:06:30;100418.41;;;9.12;100.00
4836;BME280;66719;51.226;6.902;2023-02-23T01:08:57;100414.09;;;9.11;100.00
4836;BME280;66719;51.226;6.902;2023-02-23T01:11:26;100414.09;;;9.12;100.00
4836;BME280;66719;51.226;6.902;2023-02-23T01:13:56;100419.31;;;9.12;100.00
4836;BME280;66719;51.226;6.902;2023-02-23T01:16:27;100419.31;;;9.12;100.00
4836;BME280;66719;51.226;6.902;2023-02-23T01:18:56;100413.22;;;9.10;100.00
4836;BME280;66719;51.226;6.902;2023-02-23T01:21:29;100411.50;;;9.09;100.00
4836;BME280;66719;51.226;6.902;2023-02-23T01:23:56;100410.66;;;9.09;100.00
4836;BME280;66719;51.226;6.902;2023-02-23T01:26:25;100407.19;;;9.08;100.00
4836;BME280;66719;51.226;6.902;2023-02-23T01:28:57;100413.25;;;9.09;100.00
4836;BME280;66719;51.226;6.902;2023-02-23T01:31:27;100407.19;;;9.08;100.00
4836;BME280;66719;51.226;6.902;2023-02-23T01:33:59;100410.66;;;9.09;100.00
4836;BME280;66719;51.226;6.902;2023-02-23T01:36:27;100408.97;;;9.06;100.00
4836;BME280;66719;51.226;6.902;2023-02-23T01:38:57;100410.75;;;9.04;100.00
4836;BME280;66719;51.226;6.902;2023-02-23T01:41:27;100404.63;;;9.05;100.00
4836;BME280;66719;51.226;6.902;2023-02-23T01:46:20;100404.59;;;9.06;100.00
4836;BME280;66719;51.226;6.902;2023-02-23T01:48:47;100399.41;;;9.05;100.00
4836;BME280;66719;51.226;6.902;2023-02-23T01:51:18;100400.34;;;9.01;100.00
4836;BME280;66719;51.226;6.902;2023-02-23T01:53:56;100402.19;;;8.96;100.00
4836;BME280;66719;51.226;6.902;2023-02-23T01:56:28;100403.91;;;8.97;100.00
4836;BME280;66719;51.226;6.902;2023-02-23T01:58:56;100398.72;;;8.94;100.00
4836;BME280;66719;51.226;6.902;2023-02-23T02:01:24;100403.09;;;8.92;100.00
4836;BME280;66719;51.226;6.902;2023-02-23T02:03:55;100396.16;;;8.91;100.00
4836;BME280;66719;51.226;6.902;2023-02-23T02:06:24;100401.34;;;8.92;100.00
4836;BME280;66719;51.226;6.902;2023-02-23T02:08:58;100402.25;;;8.91;100.00
4836;BME280;66719;51.226;6.902;2023-02-23T02:11:26;100397.97;;;8.87;100.00
4836;BME280;66719;51.226;6.902;2023-02-23T02:14:15;100393.63;;;8.88;100.00
4836;BME280;66719;51.226;6.902;2023-02-23T02:26:06;100400.50;;;8.92;100.00
4836;BME280;66719;51.226;6.902;2023-02-23T02:34:17;100397.94;;;8.89;100.00
4836;BME280;66719;51.226;6.902;2023-02-23T02:43:10;100391.00;;;8.88;100.00
4836;BME280;66719;51.226;6.902;2023-02-23T02:45:51;100400.56;;;8.89;100.00
4836;BME280;66719;51.226;6.902;2023-02-23T02:51:23;100398.81;;;8.89;100.00
4836;BME280;66719;51.226;6.902;2023-02-23T02:56:40;100397.94;;;8.89;100.00
4836;BME280;66719;51.226;6.902;2023-02-23T02:59:11;100384.91;;;8.89;100.00
4836;BME280;66719;51.226;6.902;2023-02-23T03:01:57;100380.56;;;8.88;100.00
4836;BME280;66719;51.226;6.902;2023-02-23T03:04:43;100383.22;;;8.86;100.00
4836;BME280;66719;51.226;6.902;2023-02-23T03:07:33;100388.44;;;8.85;100.00
4836;BME280;66719;51.226;6.902;2023-02-23T03:10:33;100378.03;;;8.83;100.00
4836;BME280;66719;51.226;6.902;2023-02-23T03:16:36;100392.88;;;8.80;100.00
4836;BME280;66719;51.226;6.902;2023-02-23T03:19:27;100391.13;;;8.80;100.00
4836;BME280;66719;51.226;6.902;2023-02-23T03:22:20;100384.16;;;8.81;100.00
4836;BME280;66719;51.226;6.902;2023-02-23T03:25:14;100393.75;;;8.80;100.00
4836;BME280;66719;51.226;6.902;2023-02-23T03:28:18;100388.53;;;8.80;100.00
4836;BME280;66719;51.226;6.902;2023-02-23T03:31:24;100391.09;;;8.82;100.00
4836;BME280;66719;51.226;6.902;2023-02-23T03:34:16;100392.84;;;8.81;100.00
4836;BME280;66719;51.226;6.902;2023-02-23T03:37:12;100392.88;;;8.80;100.00
4836;BME280;66719;51.226;6.902;2023-02-23T03:40:15;100397.19;;;8.82;100.00
4836;BME280;66719;51.226;6.902;2023-02-23T03:43:06;100399.84;;;8.79;100.00
4836;BME280;66719;51.226;6.902;2023-02-23T03:45:54;100400.78;;;8.75;100.00
4836;BME280;66719;51.226;6.902;2023-02-23T03:48:42;100402.59;;;8.71;100.00
4836;BME280;66719;51.226;6.902;2023-02-23T03:51:31;100402.56;;;8.73;100.00
4836;BME280;66719;51.226;6.902;2023-02-23T03:54:23;100411.25;;;8.73;100.00
4836;BME280;66719;51.226;6.902;2023-02-23T03:57:12;100402.53;;;8.74;100.00
4836;BME280;66719;51.226;6.902;2023-02-23T04:00:05;100399.91;;;8.74;100.00
4836;BME280;66719;51.226;6.902;2023-02-23T04:02:52;100407.84;;;8.70;100.00
4836;BME280;66719;51.226;6.902;2023-02-23T04:05:40;100395.69;;;8.69;100.00
4836;BME280;66719;51.226;6.902;2023-02-23T04:08:31;100413.94;;;8.67;100.00
4836;BME280;66719;51.226;6.902;2023-02-23T04:11:23;100415.69;;;8.67;100.00
4836;BME280;66719;51.226;6.902;2023-02-23T04:14:17;100406.97;;;8.68;100.00
4836;BME280;66719;51.226;6.902;2023-02-23T04:16:45;100407.06;;;8.63;100.00
4836;BME280;66719;51.226;6.902;2023-02-23T04:19:12;100417.53;;;8.62;100.00
4836;BME280;66719;51.226;6.902;2023-02-23T04:21:39;100414.94;;;8.59;100.00
4836;BME280;66719;51.226;6.902;2023-02-23T04:24:05;100414.94;;;8.59;100.00
4836;BME280;66719;51.226;6.902;2023-02-23T04:26:32;100421.03;;;8.61;100.00
4836;BME280;66719;51.226;6.902;2023-02-23T04:28:58;100421.00;;;8.62;100.00
4836;BME280;66719;51.226;6.902;2023-02-23T04:31:25;100421.00;;;8.62;100.00
4836;BME280;66719;51.226;6.902;2023-02-23T04:33:52;100425.28;;;8.66;100.00
4836;BME280;66719;51.226;6.902;2023-02-23T04:36:19;100429.72;;;8.61;100.00
4836;BME280;66719;51.226;6.902;2023-02-23T04:38:45;100428.88;;;8.61;100.00
4836;BME280;66719;51.226;6.902;2023-02-23T04:41:11;100428.84;;;8.59;100.00
4836;BME280;66719;51.226;6.902;2023-02-23T04:43:38;100421.91;;;8.58;100.00
4836;BME280;66719;51.226;6.902;2023-02-23T04:46:04;100421.06;;;8.58;100.00
4836;BME280;66719;51.226;6.902;2023-02-23T04:48:31;100431.47;;;8.59;100.00
4836;BME280;66719;51.226;6.902;2023-02-23T04:50:57;100423.66;;;8.58;100.00
4836;BME280;66719;51.226;6.902;2023-02-23T04:53:24;100425.44;;;8.56;100.00
4836;BME280;66719;51.226;6.902;2023-02-23T04:55:51;100430.72;;;8.53;100.00
4836;BME280;66719;51.226;6.902;2023-02-23T04:58:17;100424.63;;;8.50;100.00
4836;BME280;66719;51.226;6.902;2023-02-23T05:00:44;100425.50;;;8.51;100.00
4836;BME280;66719;51.226;6.902;2023-02-23T05:03:11;100429.84;;;8.50;100.00
4836;BME280;66719;51.226;6.902;2023-02-23T05:05:38;100421.19;;;8.50;100.00
4836;BME280;66719;51.226;6.902;2023-02-23T05:08:05;100427.31;;;8.47;100.00
4836;BME280;66719;51.226;6.902;2023-02-23T05:10:31;100428.16;;;8.48;100.00
4836;BME280;66719;51.226;6.902;2023-02-23T05:12:58;100426.41;;;8.48;100.00
4836;BME280;66719;51.226;6.902;2023-02-23T05:15:26;100428.16;;;8.48;100.00
4836;BME280;66719;51.226;6.902;2023-02-23T05:17:53;100437.72;;;8.49;100.00
4836;BME280;66719;51.226;6.902;2023-02-23T05:20:21;100429.84;;;8.50;100.00
4836;BME280;66719;51.226;6.902;2023-02-23T05:22:47;100429.00;;;8.52;100.00
4836;BME280;66719;51.226;6.902;2023-02-23T05:25:14;100433.34;;;8.51;100.00
4836;BME280;66719;51.226;6.902;2023-02-23T05:27:40;100432.44;;;8.54;100.00
4836;BME280;66719;51.226;6.902;2023-02-23T05:30:07;100441.16;;;8.53;100.00
4836;BME280;66719;51.226;6.902;2023-02-23T05:32:35;100436.81;;;8.50;100.00
4836;BME280;66719;51.226;6.902;2023-02-23T05:35:02;100440.31;;;8.49;100.00
4836;BME280;66719;51.226;6.902;2023-02-23T05:37:28;100441.22;;;8.48;100.00
4836;BME280;66719;51.226;6.902;2023-02-23T05:39:55;100439.47;;;8.48;100.00
4836;BME280;66719;51.226;6.902;2023-02-23T05:42:21;100438.56;;;8.49;100.00
4836;BME280;66719;51.226;6.902;2023-02-23T05:44:48;100434.25;;;8.48;100.00
4836;BME280;66719;51.226;6.902;2023-02-23T05:47:14;100436.88;;;8.47;100.00
4836;BME280;66719;51.226;6.902;2023-02-23T05:49:41;100439.53;;;8.45;100.00
4836;BME280;66719;51.226;6.902;2023-02-23T05:52:07;100443.91;;;8.42;100.00
4836;BME280;66719;51.226;6.902;2023-02-23T05:54:34;100443.03;;;8.41;100.00
4836;BME280;66719;51.226;6.902;2023-02-23T05:57:00;100441.31;;;8.40;100.00
4836;BME280;66719;51.226;6.902;2023-02-23T05:59:27;100449.09;;;8.45;100.00
4836;BME280;66719;51.226;6.902;2023-02-23T06:01:54;100449.94;;;8.47;100.00
4836;BME280;66719;51.226;6.902;2023-02-23T06:04:20;100449.03;;;8.48;100.00
4836;BME280;66719;51.226;6.902;2023-02-23T06:06:48;100447.28;;;8.48;100.00
4836;BME280;66719;51.226;6.902;2023-02-23T06:09:15;100453.44;;;8.46;100.00
4836;BME280;66719;51.226;6.902;2023-02-23T06:11:41;100452.59;;;8.42;100.00
4836;BME280;66719;51.226;6.902;2023-02-23T06:14:08;100451.75;;;8.40;100.00
4836;BME280;66719;51.226;6.902;2023-02-23T06:16:34;100454.34;;;8.42;100.00
4836;BME280;66719;51.226;6.902;2023-02-23T06:19:01;100453.50;;;8.40;100.00
4836;BME280;66719;51.226;6.902;2023-02-23T06:21:28;100459.56;;;8.42;100.00
4836;BME280;66719;51.226;6.902;2023-02-23T06:23:54;100458.69;;;8.41;100.00
4836;BME280;66719;51.226;6.902;2023-02-23T06:26:22;100460.47;;;8.39;100.00
4836;BME280;66719;51.226;6.902;2023-02-23T06:28:48;100465.69;;;8.39;100.00
4836;BME280;66719;51.226;6.902;2023-02-23T06:31:15;100463.94;;;8.40;100.00
4836;BME280;66719;51.226;6.902;2023-02-23T06:33:42;100471.72;;;8.41;100.00
4836;BME280;66719;51.226;6.902;2023-02-23T06:36:09;100468.25;;;8.44;100.00
4836;BME280;66719;51.226;6.902;2023-02-23T06:38:35;100471.75;;;8.43;100.00
4836;BME280;66719;51.226;6.902;2023-02-23T06:41:07;100471.72;;;8.41;100.00
4836;BME280;66719;51.226;6.902;2023-02-23T06:43:34;100469.16;;;8.40;100.00
4836;BME280;66719;51.226;6.902;2023-02-23T06:46:01;100482.19;;;8.40;100.00
4836;BME280;66719;51.226;6.902;2023-02-23T06:48:28;100481.34;;;8.39;100.00
4836;BME280;66719;51.226;6.902;2023-02-23T06:50:57;100483.13;;;8.36;100.00
4836;BME280;66719;51.226;6.902;2023-02-23T06:53:24;100480.53;;;8.36;100.00
4836;BME280;66719;51.226;6.902;2023-02-23T06:55:50;100488.31;;;8.39;100.00
4836;BME280;66719;51.226;6.902;2023-02-23T06:58:17;100486.56;;;8.39;100.00
4836;BME280;66719;51.226;6.902;2023-02-23T07:00:43;100497.00;;;8.39;100.00
4836;BME280;66719;51.226;6.902;2023-02-23T07:03:10;100500.50;;;8.37;100.00
4836;BME280;66719;51.226;6.902;2023-02-23T07:05:36;100497.00;;;8.38;100.00
4836;BME280;66719;51.226;6.902;2023-02-23T07:08:03;100502.22;;;8.38;100.00
4836;BME280;66719;51.226;6.902;2023-02-23T07:10:30;100501.38;;;8.37;100.00
4836;BME280;66719;51.226;6.902;2023-02-23T07:12:57;100504.00;;;8.36;100.00
4836;BME280;66719;51.226;6.902;2023-02-23T07:15:24;100511.78;;;8.39;100.00
4836;BME280;66719;51.226;6.902;2023-02-23T07:17:51;100509.16;;;8.39;100.00
4836;BME280;66719;51.226;6.902;2023-02-23T07:20:18;100511.75;;;8.40;100.00
4836;BME280;66719;51.226;6.902;2023-02-23T07:22:44;100517.00;;;8.39;100.00
4836;BME280;66719;51.226;6.902;2023-02-23T07:25:11;100514.41;;;8.37;100.00
4836;BME280;66719;51.226;6.902;2023-02-23T07:27:38;100511.84;;;8.36;100.00
4836;BME280;66719;51.226;6.902;2023-02-23T07:30:05;100519.63;;;8.33;100.00
4836;BME280;66719;51.226;6.902;2023-02-23T07:32:31;100518.75;;;8.34;100.00
4836;BME280;66719;51.226;6.902;2023-02-23T07:34:58;100524.88;;;8.31;100.00
4836;BME280;66719;51.226;6.902;2023-02-23T07:37:25;100528.34;;;8.32;100.00
4836;BME280;66719;51.226;6.902;2023-02-23T07:39:51;100526.66;;;8.29;100.00
4836;BME280;66719;51.226;6.902;2023-02-23T07:42:18;100529.25;;;8.31;100.00
4836;BME280;66719;51.226;6.902;2023-02-23T07:44:44;100532.69;;;8.33;100.00
4836;BME280;66719;51.226;6.902;2023-02-23T07:47:12;100528.31;;;8.33;100.00
4836;BME280;66719;51.226;6.902;2023-02-23T07:49:38;100537.91;;;8.36;100.00
4836;BME280;66719;51.226;6.902;2023-02-23T07:52:05;100535.28;;;8.33;100.00
4836;BME280;66719;51.226;6.902;2023-02-23T07:54:31;100534.44;;;8.31;100.00
4836;BME280;66719;51.226;6.902;2023-02-23T07:56:58;100537.94;;;8.31;100.00
4836;BME280;66719;51.226;6.902;2023-02-23T07:59:25;100539.66;;;8.35;100.00
4836;BME280;66719;51.226;6.902;2023-02-23T08:01:52;100551.81;;;8.36;100.00
4836;BME280;66719;51.226;6.902;2023-02-23T08:04:18;100547.50;;;8.35;100.00
4836;BME280;66719;51.226;6.902;2023-02-23T08:06:45;100555.28;;;8.37;100.00
4836;BME280;66719;51.226;6.902;2023-02-23T08:09:11;100548.34;;;8.36;100.00
4836;BME280;66719;51.226;6.902;2023-02-23T08:11:38;100548.31;;;8.39;100.00
4836;BME280;66719;51.226;6.902;2023-02-23T08:14:05;100550.88;;;8.40;100.00
4836;BME280;66719;51.226;6.902;2023-02-23T08:16:32;100556.06;;;8.42;100.00
4836;BME280;66719;51.226;6.902;2023-02-23T08:18:59;100551.72;;;8.44;100.00
4836;BME280;66719;51.226;6.902;2023-02-23T08:21:26;100556.06;;;8.45;100.00
4836;BME280;66719;51.226;6.902;2023-02-23T08:23:55;100556.88;;;8.48;100.00
4836;BME280;66719;51.226;6.902;2023-02-23T08:26:22;100561.28;;;8.45;100.00
4836;BME280;66719;51.226;6.902;2023-02-23T08:28:51;100565.59;;;8.46;100.00
4836;BME280;66719;51.226;6.902;2023-02-23T08:31:18;100567.34;;;8.47;100.00
4836;BME280;66719;51.226;6.902;2023-02-23T08:33:48;100565.56;;;8.49;100.00
4836;BME280;66719;51.226;6.902;2023-02-23T08:36:15;100569.03;;;8.49;100.00
4836;BME280;66719;51.226;6.902;2023-02-23T08:38:41;100579.41;;;8.54;100.00
4836;BME280;66719;51.226;6.902;2023-02-23T08:41:08;100571.63;;;8.51;100.00
4836;BME280;66719;51.226;6.902;2023-02-23T08:43:34;100572.50;;;8.50;100.00
4836;BME280;66719;51.226;6.902;2023-02-23T08:46:01;100581.22;;;8.49;100.00
4836;BME280;66719;51.226;6.902;2023-02-23T08:48:28;100581.28;;;8.44;100.00
4836;BME280;66719;51.226;6.902;2023-02-23T08:50:55;100583.91;;;8.41;100.00
4836;BME280;66719;51.226;6.902;2023-02-23T08:53:22;100585.75;;;8.35;100.00
4836;BME280;66719;51.226;6.902;2023-02-23T08:56:09;100584.84;;;8.34;100.00
4836;BME280;66719;51.226;6.902;2023-02-23T08:58:36;100586.56;;;8.34;100.00
4836;BME280;66719;51.226;6.902;2023-02-23T09:01:03;100591.84;;;8.29;100.00
4836;BME280;66719;51.226;6.902;2023-02-23T09:03:32;100590.13;;;8.28;100.00
4836;BME280;66719;51.226;6.902;2023-02-23T09:06:08;100593.56;;;8.32;100.00
4836;BME280;66719;51.226;6.902;2023-02-23T09:08:35;100591.81;;;8.32;100.00
4836;BME280;66719;51.226;6.902;2023-02-23T09:11:02;100602.25;;;8.37;100.00
4836;BME280;66719;51.226;6.902;2023-02-23T09:13:29;100590.03;;;8.39;100.00
4836;BME280;66719;51.226;6.902;2023-02-23T09:15:55;100595.22;;;8.42;100.00
4836;BME280;66719;51.226;6.902;2023-02-23T09:18:22;100597.81;;;8.45;100.00
4836;BME280;66719;51.226;6.902;2023-02-23T09:20:55;100602.16;;;8.44;100.00
4836;BME280;66719;51.226;6.902;2023-02-23T09:23:22;100595.16;;;8.46;100.00
4836;BME280;66719;51.226;6.902;2023-02-23T09:25:49;100596.00;;;8.48;100.00
4836;BME280;66719;51.226;6.902;2023-02-23T09:28:17;100599.44;;;8.50;100.00
4836;BME280;66719;51.226;6.902;2023-02-23T09:30:45;100597.69;;;8.51;100.00
4836;BME280;66719;51.226;6.902;2023-02-23T09:33:12;100603.75;;;8.56;100.00
4836;BME280;66719;51.226;6.902;2023-02-23T09:35:39;100596.72;;;8.60;100.00
4836;BME280;66719;51.226;6.902;2023-02-23T09:38:07;100605.34;;;8.66;100.00
4836;BME280;66719;51.226;6.902;2023-02-23T09:40:51;100610.59;;;8.65;100.00
4836;BME280;66719;51.226;6.902;2023-02-23T09:43:41;100612.28;;;8.67;100.00
4836;BME280;66719;51.226;6.902;2023-02-23T09:46:24;100614.03;;;8.70;100.00
4836;BME280;66719;51.226;6.902;2023-02-23T09:48:56;100614.09;;;8.64;100.00
4836;BME280;66719;51.226;6.902;2023-02-23T09:51:24;100623.66;;;8.63;100.00
4836;BME280;66719;51.226;6.902;2023-02-23T09:53:53;100615.84;;;8.63;100.00
4836;BME280;66719;51.226;6.902;2023-02-23T09:56:42;100618.41;;;8.66;100.00
4836;BME280;66719;51.226;6.902;2023-02-23T09:59:13;100629.72;;;8.65;100.00
4836;BME280;66719;51.226;6.902;2023-02-23T10:04:22;100630.63;;;8.63;100.00
4836;BME280;66719;51.226;6.902;2023-02-23T10:07:12;100634.91;;;8.68;100.00
4836;BME280;66719;51.226;6.902;2023-02-23T10:12:21;100641.78;;;8.75;100.00
4836;BME280;66719;51.226;6.902;2023-02-23T10:23:14;100647.19;;;8.60;100.00
4836;BME280;66719;51.226;6.902;2023-02-23T10:25:45;100650.66;;;8.59;100.00
4836;BME280;66719;51.226;6.902;2023-02-23T10:28:18;100648.13;;;8.55;100.00
4836;BME280;66719;51.226;6.902;2023-02-23T10:30:49;100664.72;;;8.47;100.00
4836;BME280;66719;51.226;6.902;2023-02-23T10:33:35;100667.31;;;8.49;100.00
4836;BME280;66719;51.226;6.902;2023-02-23T10:36:17;100664.69;;;8.49;100.00
4836;BME280;66719;51.226;6.902;2023-02-23T10:38:45;100666.53;;;8.44;100.00
4836;BME280;66719;51.226;6.902;2023-02-23T10:41:12;100664.75;;;8.46;100.00
4836;BME280;66719;51.226;6.902;2023-02-23T10:43:40;100666.50;;;8.42;100.00
4836;BME280;66719;51.226;6.902;2023-02-23T10:46:13;100662.19;;;8.43;100.00
4836;BME280;66719;51.226;6.902;2023-02-23T10:48:45;100673.47;;;8.45;100.00
4836;BME280;66719;51.226;6.902;2023-02-23T10:51:24;100667.41;;;8.40;100.00
4836;BME280;66719;51.226;6.902;2023-02-23T10:53:53;100676.97;;;8.41;100.00
4836;BME280;66719;51.226;6.902;2023-02-23T10:56:21;100659.59;;;8.40;100.00
4836;BME280;66719;51.226;6.902;2023-02-23T11:01:30;100661.38;;;8.32;100.00
4836;BME280;66719;51.226;6.902;2023-02-23T11:07:14;100660.56;;;8.27;100.00
4836;BME280;66719;51.226;6.902;2023-02-23T11:09:42;100667.53;;;8.25;100.00
4836;BME280;66719;51.226;6.902;2023-02-23T11:12:20;100666.63;;;8.29;100.00
4836;BME280;66719;51.226;6.902;2023-02-23T11:14:52;100670.94;;;8.31;100.00
4836;BME280;66719;51.226;6.902;2023-02-23T11:17:36;100675.34;;;8.28;100.00
4836;BME280;66719;51.226;6.902;2023-02-23T11:25:42;100674.53;;;8.21;100.00
4836;BME280;66719;51.226;6.902;2023-02-23T11:28:22;100681.53;;;8.16;100.00
4836;BME280;66719;51.226;6.902;2023-02-23T11:30:50;100679.78;;;8.18;100.00
4836;BME280;66719;51.226;6.902;2023-02-23T11:33:20;100678.03;;;8.20;100.00
4836;BME280;66719;51.226;6.902;2023-02-23T11:38:44;100676.25;;;8.23;100.00
4836;BME280;66719;51.226;6.902;2023-02-23T11:41:23;100675.41;;;8.21;100.00
4836;BME280;66719;51.226;6.902;2023-02-23T11:43:55;100662.34;;;8.23;100.00
4836;BME280;66719;51.226;6.902;2023-02-23T11:46:22;100669.22;;;8.30;100.00
4836;BME280;66719;51.226;6.902;2023-02-23T11:48:57;100666.59;;;8.32;100.00
4836;BME280;66719;51.226;6.902;2023-02-23T11:53:54;100668.25;;;8.45;100.00
4836;BME280;66719;51.226;6.902;2023-02-23T11:56:22;100665.59;;;8.46;100.00
4836;BME280;66719;51.226;6.902;2023-02-23T11:58:56;100666.38;;;8.56;100.00
4836;BME280;66719;51.226;6.902;2023-02-23T12:01:42;100666.38;;;8.56;100.00
4836;BME280;66719;51.226;6.902;2023-02-23T12:07:23;100661.03;;;8.65;100.00
4836;BME280;66719;51.226;6.902;2023-02-23T12:09:58;100659.31;;;8.64;100.00
4836;BME280;66719;51.226;6.902;2023-02-23T12:12:27;100683.00;;;8.46;100.00
4836;BME280;66719;51.226;6.902;2023-02-23T12:15:04;100666.50;;;8.42;100.00
4836;BME280;66719;51.226;6.902;2023-02-23T12:17:44;100665.66;;;8.43;100.00
4836;BME280;66719;51.226;6.902;2023-02-23T12:20:17;100666.59;;;8.36;100.00
4836;BME280;66719;51.226;6.902;2023-02-23T12:23:17;100668.34;;;8.30;100.00
4836;BME280;66719;51.226;6.902;2023-02-23T12:28:32;100668.47;;;8.19;100.00
4836;BME280;66719;51.226;6.902;2023-02-23T12:31:21;100664.97;;;8.21;100.00
4836;BME280;66719;51.226;6.902;2023-02-23T12:33:56;100665.88;;;8.17;100.00
4836;BME280;66719;51.226;6.902;2023-02-23T12:36:35;100679.81;;;8.13;100.00
4836;BME280;66719;51.226;6.902;2023-02-23T12:39:20;100678.09;;;8.12;100.00
4836;BME280;66719;51.226;6.902;2023-02-23T12:44:46;100679.78;;;8.19;100.00
4836;BME280;66719;51.226;6.902;2023-02-23T12:50:57;100683.34;;;8.09;100.00
4836;BME280;66719;51.226;6.902;2023-02-23T12:53:18;100672.06;;;8.06;100.00
4836;BME280;66719;51.226;6.902;2023-02-23T12:58:25;100668.59;;;8.08;100.00
4836;BME280;66719;51.226;6.902;2023-02-23T13:01:01;100678.13;;;8.11;100.00
4836;BME280;66719;51.226;6.902;2023-02-23T13:03:44;100670.28;;;8.12;100.00
4836;BME280;66719;51.226;6.902;2023-02-23T13:06:32;100670.28;;;8.12;100.00
4836;BME280;66719;51.226;6.902;2023-02-23T13:09:28;100668.47;;;8.19;100.00
4836;BME280;66719;51.226;6.902;2023-02-23T13:17:25;100671.09;;;8.16;100.00
4836;BME280;66719;51.226;6.902;2023-02-23T13:19:57;100673.75;;;8.11;100.00
4836;BME280;66719;51.226;6.902;2023-02-23T13:26:00;100679.78;;;8.16;100.00
4836;BME280;66719;51.226;6.902;2023-02-23T13:28:53;100672.78;;;8.21;100.00
4836;BME280;66719;51.226;6.902;2023-02-23T13:31:28;100672.75;;;8.26;100.00
4836;BME280;66719;51.226;6.902;2023-02-23T13:33:57;100681.44;;;8.27;100.00
4836;BME280;66719;51.226;6.902;2023-02-23T13:36:26;100679.66;;;8.30;100.00
4836;BME280;66719;51.226;6.902;2023-02-23T13:44:23;100680.66;;;8.18;100.00
4836;BME280;66719;51.226;6.902;2023-02-23T13:47:02;100676.31;;;8.16;100.00
4836;BME280;66719;51.226;6.902;2023-02-23T13:49:47;100678.91;;;8.19;100.00
4836;BME280;66719;51.226;6.902;2023-02-23T13:52:36;100676.31;;;8.17;100.00
4836;BME280;66719;51.226;6.902;2023-02-23T13:58:14;100675.38;;;8.23;100.00
4836;BME280;66719;51.226;6.902;2023-02-23T14:00:42;100678.00;;;8.21;100.00
4836;BME280;66719;51.226;6.902;2023-02-23T14:03:21;100686.66;;;8.23;100.00
4836;BME280;66719;51.226;6.902;2023-02-23T14:05:53;100694.56;;;8.16;100.00
4836;BME280;66719;51.226;6.902;2023-02-23T14:08:35;100686.72;;;8.19;100.00
4836;BME280;66719;51.226;6.902;2023-02-23T14:11:03;100679.78;;;8.16;100.00
4836;BME280;66719;51.226;6.902;2023-02-23T14:13:32;100682.41;;;8.15;100.00
4836;BME280;66719;51.226;6.902;2023-02-23T14:19:29;100678.88;;;8.20;100.00
4836;BME280;66719;51.226;6.902;2023-02-23T14:22:04;100687.59;;;8.16;100.00
4836;BME280;66719;51.226;6.902;2023-02-23T14:24:31;100684.09;;;8.20;100.00
4836;BME280;66719;51.226;6.902;2023-02-23T14:29:42;100691.06;;;8.20;100.00
4836;BME280;66719;51.226;6.902;2023-02-23T14:34:52;100701.50;;;8.18;100.00
4836;BME280;66719;51.226;6.902;2023-02-23T14:37:31;100698.91;;;8.18;100.00
4836;BME280;66719;51.226;6.902;2023-02-23T14:40:04;100697.16;;;8.19;100.00
4836;BME280;66719;51.226;6.902;2023-02-23T14:42:37;100697.13;;;8.20;100.00
4836;BME280;66719;51.226;6.902;2023-02-23T14:45:15;100694.56;;;8.17;100.00
4836;BME280;66719;51.226;6.902;2023-02-23T14:47:45;100698.94;;;8.17;100.00
4836;BME280;66719;51.226;6.902;2023-02-23T14:50:23;100698.94;;;8.17;100.00
4836;BME280;66719;51.226;6.902;2023-02-23T14:52:53;100691.97;;;8.17;100.00
4836;BME280;66719;51.226;6.902;2023-02-23T14:55:25;100692.81;;;8.16;100.00
4836;BME280;66719;51.226;6.902;2023-02-23T14:57:55;100696.31;;;8.18;100.00
4836;BME280;66719;51.226;6.902;2023-02-23T15:00:27;100693.72;;;8.17;100.00
4836;BME280;66719;51.226;6.902;2023-02-23T15:05:36;100698.94;;;8.12;100.00
4836;BME280;66719;51.226;6.902;2023-02-23T15:08:07;100699.81;;;8.13;100.00
4836;BME280;66719;51.226;6.902;2023-02-23T15:10:38;100698.94;;;8.14;100.00
4836;BME280;66719;51.226;6.902;2023-02-23T15:13:24;100708.50;;;8.13;100.00